This is the latest recevied weather packets stored in our database for station/object SQ9IWE-13. If no packets are shown the sender has not sent any weather packets the latest 10 day(s).
| Time | Temp. | Humidity | Pressure | Rain* | Wind** | Luminosity | Snow |
|---|---|---|---|---|---|---|---|
| 1777884601 | 25.56° C | 33% | 1015.5 hPa | - | - | - | - |
| 1777884001 | 25° C | 33% | 1015.4 hPa | - | - | - | - |
| 1777883401 | 25° C | 33% | 1015.5 hPa | - | - | - | - |
| 1777882801 | 24.44° C | 35% | 1015.4 hPa | - | - | - | - |
| 1777882201 | 24.44° C | 34% | 1015.4 hPa | - | - | - | - |
| 1777881601 | 24.44° C | 34% | 1015.5 hPa | - | - | - | - |
| 1777881001 | 24.44° C | 35% | 1015.4 hPa | - | - | - | - |
| 1777880401 | 23.89° C | 35% | 1015.5 hPa | - | - | - | - |
| 1777879801 | 23.33° C | 36% | 1015.5 hPa | - | - | - | - |
| 1777879201 | 21.67° C | 39% | 1015.3 hPa | - | - | - | - |
| 1777878001 | 20.56° C | 39% | 1015.3 hPa | - | - | - | - |
| 1777877401 | 20° C | 40% | 1015.6 hPa | - | - | - | - |
| 1777876801 | 20° C | 40% | 1015.5 hPa | - | - | - | - |
| 1777876201 | 20° C | 39% | 1015.4 hPa | - | - | - | - |
| 1777875601 | 21.67° C | 37% | 1015.5 hPa | - | - | - | - |
| 1777875001 | 20.56° C | 40% | 1015.5 hPa | - | - | - | - |
| 1777874401 | 20.56° C | 40% | 1015.3 hPa | - | - | - | - |
| 1777873801 | 21.11° C | 40% | 1015.3 hPa | - | - | - | - |
| 1777873201 | 21.11° C | 40% | 1015.3 hPa | - | - | - | - |
| 1777872601 | 21.11° C | 41% | 1015.2 hPa | - | - | - | - |
| 1777872001 | 20° C | 42% | 1015.5 hPa | - | - | - | - |
| 1777871401 | 19.44° C | 43% | 1015.6 hPa | - | - | - | - |
| 1777870801 | 18.33° C | 45% | 1015.4 hPa | - | - | - | - |
| 1777870201 | 17.78° C | 46% | 1015.5 hPa | - | - | - | - |
| 1777869601 | 17.22° C | 48% | 1015.4 hPa | - | - | - | - |
* Rain since midnight (hover to see other rain measurements)
** Current wind speed in m/s (hover to see current wind gust speed)